createdAt,value
2018-07-06T00:01:04.913Z,75.97
2018-07-06T00:02:11.919Z,75.95
2018-07-06T00:03:19.018Z,75.98
2018-07-06T00:04:26.002Z,76.00
2018-07-06T00:05:33.048Z,75.98
2018-07-06T00:06:39.982Z,75.98
2018-07-06T00:07:47.067Z,75.94
2018-07-06T00:08:54.148Z,75.98
2018-07-06T00:10:01.283Z,75.95
2018-07-06T00:11:08.287Z,75.95
2018-07-06T00:12:15.347Z,75.94
2018-07-06T00:13:22.331Z,75.93
2018-07-06T00:14:29.382Z,75.90
2018-07-06T00:15:36.395Z,75.92
2018-07-06T00:16:43.049Z,75.92
2018-07-06T00:17:50.163Z,75.86
2018-07-06T00:18:57.216Z,75.86
2018-07-06T00:20:04.316Z,75.79
2018-07-06T00:21:11.320Z,75.77
2018-07-06T00:22:18.291Z,75.73
2018-07-06T00:23:25.531Z,75.72
2018-07-06T00:24:32.030Z,75.73
2018-07-06T00:25:39.082Z,75.68
2018-07-06T00:26:46.106Z,75.62
2018-07-06T00:27:52.726Z,75.57
2018-07-06T00:28:59.831Z,75.45
2018-07-06T00:30:06.541Z,75.35
2018-07-06T00:31:13.684Z,75.26
2018-07-06T00:32:20.414Z,75.23
2018-07-06T00:33:27.342Z,75.16
2018-07-06T00:34:34.376Z,75.16
2018-07-06T00:35:41.359Z,75.11
2018-07-06T00:36:48.739Z,75.05
2018-07-06T00:37:55.162Z,74.99
2018-07-06T00:39:02.183Z,74.90
2018-07-06T00:40:09.821Z,74.68
2018-07-06T00:41:16.089Z,74.64
2018-07-06T00:42:22.906Z,74.61
2018-07-06T00:43:30.059Z,74.52
2018-07-06T00:44:36.778Z,74.50
2018-07-06T00:45:43.495Z,74.40
2018-07-06T00:46:50.191Z,74.28
2018-07-06T00:47:57.196Z,74.16
2018-07-06T00:49:04.327Z,74.09
2018-07-06T00:50:11.546Z,74.04
2018-07-06T00:51:18.658Z,73.94
2018-07-06T00:52:25.672Z,73.88
2018-07-06T00:53:32.666Z,73.78
2018-07-06T00:54:39.432Z,73.74
2018-07-06T00:55:46.218Z,73.76
2018-07-06T00:56:53.014Z,73.75
2018-07-06T00:57:59.944Z,73.75
2018-07-06T00:59:07.039Z,73.75
2018-07-06T01:00:14.003Z,73.73
2018-07-06T01:01:20.835Z,73.70
2018-07-06T01:02:27.903Z,73.62
2018-07-06T01:03:34.657Z,73.58
2018-07-06T01:04:41.781Z,73.59
2018-07-06T01:05:48.557Z,73.61
2018-07-06T01:06:55.617Z,73.53
2018-07-06T01:08:02.512Z,73.41
2018-07-06T01:09:09.199Z,73.42
2018-07-06T01:10:16.327Z,73.43
2018-07-06T01:11:23.199Z,73.33
2018-07-06T01:12:30.264Z,73.26
2018-07-06T01:13:37.219Z,73.22
2018-07-06T01:14:44.112Z,73.25
2018-07-06T01:15:50.788Z,73.26
2018-07-06T01:16:57.870Z,73.25
2018-07-06T01:18:05.015Z,73.15
2018-07-06T01:19:12.096Z,73.06
2018-07-06T01:20:19.221Z,73.00
2018-07-06T01:21:26.370Z,72.90
2018-07-06T01:22:33.368Z,72.84
2018-07-06T01:23:40.008Z,72.77
2018-07-06T01:24:47.113Z,72.72
2018-07-06T01:25:53.834Z,72.65
2018-07-06T01:27:00.774Z,72.63
2018-07-06T01:28:07.375Z,72.62
2018-07-06T01:29:14.343Z,72.55
2018-07-06T01:30:21.337Z,72.49
2018-07-06T01:31:28.383Z,72.52
2018-07-06T01:32:35.427Z,72.54
2018-07-06T01:33:42.520Z,72.54
2018-07-06T01:34:49.158Z,72.51
2018-07-06T01:35:56.248Z,72.50
2018-07-06T01:37:03.318Z,72.44
2018-07-06T01:38:09.993Z,72.34
2018-07-06T01:39:16.701Z,72.22
2018-07-06T01:40:23.536Z,72.12
2018-07-06T01:41:30.649Z,72.13
2018-07-06T01:42:37.418Z,72.15
2018-07-06T01:43:44.518Z,72.14
2018-07-06T01:44:51.472Z,72.17
2018-07-06T01:45:58.426Z,72.14
2018-07-06T01:47:05.621Z,72.03
2018-07-06T01:48:12.666Z,71.91
2018-07-06T01:49:19.414Z,71.88
2018-07-06T01:50:26.441Z,71.86
2018-07-06T01:51:33.598Z,71.80
2018-07-06T01:52:40.689Z,71.74
2018-07-06T01:53:47.674Z,71.69
2018-07-06T01:54:54.578Z,71.63
2018-07-06T01:56:01.504Z,71.58
2018-07-06T01:57:08.246Z,71.54
2018-07-06T01:58:15.250Z,71.53
2018-07-06T01:59:22.283Z,71.48
2018-07-06T02:00:29.308Z,71.45
2018-07-06T02:01:36.414Z,71.41
2018-07-06T02:02:43.547Z,71.33
2018-07-06T02:03:50.544Z,71.33
2018-07-06T02:04:57.459Z,71.33
2018-07-06T02:06:04.537Z,71.33
2018-07-06T02:07:11.447Z,71.36
2018-07-06T02:08:18.491Z,71.25
2018-07-06T02:09:25.551Z,71.17
2018-07-06T02:10:32.611Z,71.16
2018-07-06T02:11:39.553Z,71.20
2018-07-06T02:12:46.829Z,71.21
2018-07-06T02:13:53.450Z,71.18
2018-07-06T02:15:00.524Z,71.10
2018-07-06T02:16:07.551Z,71.15
2018-07-06T02:17:14.516Z,71.15
2018-07-06T02:18:21.232Z,71.05
2018-07-06T02:19:28.280Z,71.08
2018-07-06T02:20:35.330Z,71.01
2018-07-06T02:21:42.306Z,70.97
2018-07-06T02:22:49.512Z,70.93
2018-07-06T02:23:56.128Z,70.98
2018-07-06T02:25:03.247Z,70.96
2018-07-06T02:26:15.276Z,71.03
2018-07-06T02:27:16.966Z,71.05
2018-07-06T02:28:23.867Z,71.02
2018-07-06T02:29:30.953Z,71.00
2018-07-06T02:30:38.082Z,70.94
2018-07-06T02:31:44.991Z,70.92
2018-07-06T02:32:51.716Z,70.90
2018-07-06T02:33:58.709Z,70.87
2018-07-06T02:35:05.793Z,70.80
2018-07-06T02:36:13.155Z,70.78
2018-07-06T02:37:19.669Z,70.81
2018-07-06T02:38:26.611Z,70.77
2018-07-06T02:39:33.621Z,70.70
2018-07-06T02:40:40.730Z,70.67
2018-07-06T02:41:47.868Z,70.75
2018-07-06T02:42:54.878Z,70.80
2018-07-06T02:44:01.863Z,70.80
2018-07-06T02:45:08.894Z,70.70
2018-07-06T02:46:15.854Z,70.70
2018-07-06T02:47:22.918Z,70.67
2018-07-06T02:48:30.066Z,70.69
2018-07-06T02:49:37.086Z,70.64
2018-07-06T02:50:44.076Z,70.53
2018-07-06T02:51:51.043Z,70.56
2018-07-06T02:52:58.271Z,70.65
2018-07-06T02:54:04.826Z,70.70
2018-07-06T02:55:11.771Z,70.72
2018-07-06T02:56:18.604Z,70.70
2018-07-06T02:57:25.661Z,70.63
2018-07-06T02:58:32.631Z,70.61
2018-07-06T02:59:39.676Z,70.53
2018-07-06T03:00:46.675Z,70.54
2018-07-06T03:01:53.474Z,70.60
2018-07-06T03:03:00.396Z,70.56
2018-07-06T03:04:07.382Z,70.54
2018-07-06T03:05:14.441Z,70.57
2018-07-06T03:06:21.580Z,70.60
2018-07-06T03:07:28.496Z,70.62
2018-07-06T03:08:35.370Z,70.70
2018-07-06T03:09:42.368Z,70.77
2018-07-06T03:10:49.303Z,70.83
2018-07-06T03:11:56.374Z,70.85
2018-07-06T03:13:03.155Z,70.82
2018-07-06T03:14:10.096Z,70.82
2018-07-06T03:15:17.143Z,70.83
2018-07-06T03:16:24.007Z,70.77
2018-07-06T03:17:31.065Z,70.79
2018-07-06T03:18:37.997Z,70.82
2018-07-06T03:19:44.928Z,70.85
2018-07-06T03:20:51.788Z,70.83
2018-07-06T03:21:58.850Z,70.80
2018-07-06T03:23:05.765Z,70.78
2018-07-06T03:24:12.642Z,70.73
2018-07-06T03:25:19.675Z,70.66
2018-07-06T03:26:26.727Z,70.71
2018-07-06T03:27:33.744Z,70.71
2018-07-06T03:28:40.940Z,70.69
2018-07-06T03:29:47.827Z,70.67
2018-07-06T03:30:54.871Z,70.63
2018-07-06T03:32:01.720Z,70.69
2018-07-06T03:33:08.688Z,70.66
2018-07-06T03:34:15.775Z,70.59
2018-07-06T03:35:22.863Z,70.62
2018-07-06T03:36:29.905Z,70.62
2018-07-06T03:37:36.981Z,70.65
2018-07-06T03:38:44.094Z,70.71
2018-07-06T03:39:51.137Z,70.74
2018-07-06T03:40:58.132Z,70.69
2018-07-06T03:42:05.073Z,70.70
2018-07-06T03:43:12.115Z,70.76
2018-07-06T03:44:19.201Z,70.76
2018-07-06T03:45:26.091Z,70.79
2018-07-06T03:46:32.969Z,70.70
2018-07-06T03:47:40.062Z,70.58
2018-07-06T03:48:46.998Z,70.53
2018-07-06T03:49:54.029Z,70.56
2018-07-06T03:51:01.055Z,70.58
2018-07-06T03:52:07.917Z,70.56
2018-07-06T03:53:14.958Z,70.59
2018-07-06T03:54:21.994Z,70.59
2018-07-06T03:55:28.865Z,70.54
2018-07-06T03:56:35.916Z,70.45
2018-07-06T03:57:42.944Z,70.46
2018-07-06T03:58:49.950Z,70.47
2018-07-06T03:59:57.067Z,70.40
2018-07-06T04:01:04.057Z,70.37
2018-07-06T04:02:10.897Z,70.31
2018-07-06T04:03:17.882Z,70.35
2018-07-06T04:04:24.775Z,70.35
2018-07-06T04:05:31.678Z,70.39
2018-07-06T04:06:38.851Z,70.45
2018-07-06T04:07:45.858Z,70.50
2018-07-06T04:08:52.841Z,70.46
2018-07-06T04:09:59.910Z,70.38
2018-07-06T04:11:06.857Z,70.32
2018-07-06T04:12:13.858Z,70.31
2018-07-06T04:13:20.867Z,70.31
2018-07-06T04:14:27.695Z,70.40
2018-07-06T04:15:34.681Z,70.43
2018-07-06T04:16:41.607Z,70.44
2018-07-06T04:17:48.563Z,70.45
2018-07-06T04:18:55.651Z,70.44
2018-07-06T04:20:02.707Z,70.43
2018-07-06T04:21:09.677Z,70.39
2018-07-06T04:22:16.755Z,70.41
2018-07-06T04:23:23.884Z,70.45
2018-07-06T04:24:30.996Z,70.44
2018-07-06T04:25:38.003Z,70.47
2018-07-06T04:26:45.016Z,70.54
2018-07-06T04:27:52.095Z,70.55
2018-07-06T04:28:59.010Z,70.51
2018-07-06T04:30:06.120Z,70.53
2018-07-06T04:31:13.238Z,70.56
2018-07-06T04:32:20.223Z,70.66
2018-07-06T04:33:27.180Z,70.77
2018-07-06T04:34:34.087Z,70.78
2018-07-06T04:35:41.106Z,70.79
2018-07-06T04:36:48.215Z,70.82
2018-07-06T04:37:55.182Z,70.94
2018-07-06T04:39:02.081Z,70.98
2018-07-06T04:40:08.831Z,71.05
2018-07-06T04:41:15.761Z,71.10
2018-07-06T04:42:22.593Z,71.11
2018-07-06T04:43:29.664Z,71.12
2018-07-06T04:44:36.548Z,71.13
2018-07-06T04:45:43.602Z,71.14
2018-07-06T04:46:50.466Z,71.11
2018-07-06T04:47:57.483Z,71.10
2018-07-06T04:49:04.307Z,71.15
2018-07-06T04:50:11.143Z,71.25
2018-07-06T04:51:18.170Z,71.37
2018-07-06T04:52:25.262Z,71.42
2018-07-06T04:53:32.202Z,71.45
2018-07-06T04:54:39.252Z,71.53
2018-07-06T04:55:46.256Z,71.61
2018-07-06T04:56:53.226Z,71.64
2018-07-06T04:58:00.300Z,71.68
2018-07-06T04:59:07.199Z,71.70
2018-07-06T05:00:14.158Z,71.72
2018-07-06T05:01:21.180Z,71.77
2018-07-06T05:02:28.142Z,71.78
2018-07-06T05:03:35.144Z,71.81
2018-07-06T05:04:42.055Z,71.92
2018-07-06T05:05:49.079Z,72.03
2018-07-06T05:06:56.198Z,72.11
2018-07-06T05:08:02.875Z,72.20
2018-07-06T05:09:09.686Z,72.27
2018-07-06T05:10:16.746Z,72.33
2018-07-06T05:11:23.836Z,72.41
2018-07-06T05:12:30.790Z,72.54
2018-07-06T05:13:37.671Z,72.69
2018-07-06T05:14:44.660Z,72.81
2018-07-06T05:15:51.780Z,72.95
2018-07-06T05:16:58.669Z,72.99
2018-07-06T05:18:05.518Z,73.13
2018-07-06T05:19:12.391Z,73.22
2018-07-06T05:20:19.176Z,73.33
2018-07-06T05:21:26.089Z,73.41
2018-07-06T05:22:33.033Z,73.52
2018-07-06T05:23:40.061Z,73.61
2018-07-06T05:24:47.230Z,73.77
2018-07-06T05:25:54.174Z,73.81
2018-07-06T05:27:01.182Z,73.92
2018-07-06T05:28:08.424Z,74.02
2018-07-06T05:29:14.991Z,74.17
2018-07-06T05:30:22.027Z,74.29
2018-07-06T05:31:28.797Z,74.49
2018-07-06T05:32:35.634Z,74.61
2018-07-06T05:33:42.680Z,74.76
2018-07-06T05:34:49.831Z,74.92
2018-07-06T05:35:56.810Z,75.05
2018-07-06T05:37:04.038Z,75.13
2018-07-06T05:38:10.922Z,75.35
2018-07-06T05:39:18.011Z,75.49
2018-07-06T05:40:25.036Z,75.65
2018-07-06T05:41:31.994Z,75.72
2018-07-06T05:42:38.958Z,75.82
2018-07-06T05:43:46.168Z,75.87
2018-07-06T05:44:52.891Z,75.96
2018-07-06T05:45:59.899Z,76.13
2018-07-06T05:47:07.183Z,76.23
2018-07-06T05:48:13.827Z,76.31
2018-07-06T05:49:20.927Z,76.40
2018-07-06T05:50:27.660Z,76.33
2018-07-06T05:51:34.651Z,76.33
2018-07-06T05:52:41.898Z,76.47
2018-07-06T05:53:48.493Z,76.56
2018-07-06T05:54:55.590Z,76.64
2018-07-06T05:56:02.505Z,76.78
2018-07-06T05:57:09.469Z,76.96
2018-07-06T05:58:16.314Z,77.00
2018-07-06T05:59:23.291Z,77.05
2018-07-06T06:00:30.224Z,77.06
2018-07-06T06:01:37.103Z,77.26
2018-07-06T06:02:44.151Z,77.36
2018-07-06T06:03:51.078Z,77.52
2018-07-06T06:04:57.859Z,77.62
2018-07-06T06:06:04.827Z,77.69
2018-07-06T06:07:11.663Z,77.85
2018-07-06T06:08:18.320Z,77.86
2018-07-06T06:09:25.135Z,78.03
2018-07-06T06:10:32.005Z,78.02
2018-07-06T06:11:38.783Z,78.03
2018-07-06T06:12:45.565Z,78.15
2018-07-06T06:13:52.354Z,78.30
2018-07-06T06:14:59.205Z,78.36
2018-07-06T06:16:06.017Z,78.32
2018-07-06T06:17:12.871Z,78.36
2018-07-06T06:18:19.644Z,78.42
2018-07-06T06:19:26.479Z,78.49
2018-07-06T06:20:33.284Z,78.59
2018-07-06T06:21:40.093Z,78.59
2018-07-06T06:22:46.934Z,78.63
2018-07-06T06:23:53.738Z,78.70
2018-07-06T06:25:00.558Z,78.71
2018-07-06T06:26:07.765Z,78.70
2018-07-06T06:27:14.108Z,78.78
2018-07-06T06:28:20.887Z,78.88
2018-07-06T06:29:27.677Z,78.91
2018-07-06T06:30:34.590Z,78.98
2018-07-06T06:31:41.431Z,79.08
2018-07-06T06:32:48.323Z,79.05
2018-07-06T06:33:55.264Z,79.11
2018-07-06T06:35:02.292Z,79.15
2018-07-06T06:36:09.218Z,79.12
2018-07-06T06:37:16.060Z,79.03
2018-07-06T06:38:22.918Z,79.14
2018-07-06T06:39:29.747Z,79.25
2018-07-06T06:40:36.624Z,79.14
2018-07-06T06:41:43.394Z,79.14
2018-07-06T06:42:50.167Z,79.21
2018-07-06T06:43:57.021Z,79.15
2018-07-06T06:45:03.911Z,79.16
2018-07-06T06:46:10.782Z,79.37
2018-07-06T06:47:17.549Z,79.30
2018-07-06T06:48:24.326Z,79.29
2018-07-06T06:49:31.410Z,79.22
2018-07-06T06:50:38.159Z,79.37
2018-07-06T06:51:44.959Z,79.41
2018-07-06T06:52:51.790Z,79.31
2018-07-06T06:53:58.549Z,79.35
2018-07-06T06:55:05.434Z,79.34
2018-07-06T06:56:12.250Z,79.28
2018-07-06T06:57:19.047Z,79.27
2018-07-06T06:58:25.940Z,79.34
2018-07-06T06:59:32.828Z,79.42
2018-07-06T07:00:39.774Z,79.39
2018-07-06T07:01:46.696Z,79.36
2018-07-06T07:02:53.462Z,79.36
2018-07-06T07:04:00.266Z,79.36
2018-07-06T07:05:07.183Z,79.48
2018-07-06T07:06:13.990Z,79.53
2018-07-06T07:07:20.814Z,79.64
2018-07-06T07:08:27.716Z,79.75
2018-07-06T07:09:34.612Z,79.78
2018-07-06T07:10:41.530Z,79.67
2018-07-06T07:11:48.564Z,79.65
2018-07-06T07:12:55.340Z,79.64
2018-07-06T07:14:02.109Z,79.70
2018-07-06T07:15:09.164Z,79.60
2018-07-06T07:16:15.975Z,79.55
2018-07-06T07:17:22.862Z,79.61
2018-07-06T07:18:29.635Z,79.70
2018-07-06T07:19:36.490Z,79.68
2018-07-06T07:20:43.303Z,79.75
2018-07-06T07:21:50.177Z,79.72
2018-07-06T07:22:57.068Z,79.67
2018-07-06T07:24:04.037Z,79.76
2018-07-06T07:25:10.789Z,79.87
2018-07-06T07:26:17.595Z,79.92
2018-07-06T07:27:24.537Z,79.63
2018-07-06T07:28:31.374Z,79.56
2018-07-06T07:29:38.210Z,79.55
2018-07-06T07:30:45.013Z,79.57
2018-07-06T07:31:51.902Z,79.66
2018-07-06T07:32:58.718Z,79.62
2018-07-06T07:34:05.517Z,79.56
2018-07-06T07:35:12.311Z,79.73
2018-07-06T07:36:19.130Z,79.81
2018-07-06T07:37:25.929Z,79.86
2018-07-06T07:38:32.687Z,79.93
2018-07-06T07:39:39.497Z,79.79
2018-07-06T07:40:46.284Z,79.71
2018-07-06T07:41:53.107Z,79.74
2018-07-06T07:43:01.619Z,79.83
2018-07-06T07:44:06.926Z,79.82
2018-07-06T07:45:13.671Z,79.87
2018-07-06T07:46:20.497Z,79.91
2018-07-06T07:47:27.412Z,79.79
2018-07-06T07:48:34.220Z,79.70
2018-07-06T07:49:41.160Z,79.67
2018-07-06T07:50:47.982Z,79.52
2018-07-06T07:51:54.796Z,79.44
2018-07-06T07:53:01.875Z,79.42
2018-07-06T07:54:08.850Z,79.50
2018-07-06T07:55:15.727Z,79.52
2018-07-06T07:56:22.654Z,79.49
2018-07-06T07:57:29.481Z,79.37
2018-07-06T07:58:36.331Z,79.27
2018-07-06T07:59:43.598Z,79.17
2018-07-06T08:00:50.009Z,79.19
2018-07-06T08:01:56.695Z,79.12
2018-07-06T08:03:03.496Z,78.96
2018-07-06T08:04:10.383Z,78.93
2018-07-06T08:05:17.254Z,79.05
2018-07-06T08:06:24.126Z,79.15
2018-07-06T08:07:30.918Z,78.94
2018-07-06T08:08:37.678Z,78.81
2018-07-06T08:09:44.561Z,78.82
2018-07-06T08:10:51.614Z,78.73
2018-07-06T08:11:58.496Z,78.85
2018-07-06T08:13:05.266Z,78.76
2018-07-06T08:14:12.068Z,78.69
2018-07-06T08:15:18.910Z,78.70
2018-07-06T08:16:32.963Z,78.80
2018-07-06T08:17:32.475Z,78.89
2018-07-06T08:18:39.291Z,78.84
2018-07-06T08:19:46.116Z,78.71
2018-07-06T08:20:52.961Z,78.72
2018-07-06T08:22:00.078Z,78.85
2018-07-06T08:23:06.832Z,78.75
2018-07-06T08:24:13.740Z,78.78
2018-07-06T08:25:20.885Z,78.81
2018-07-06T08:26:27.681Z,78.66
2018-07-06T08:27:34.465Z,78.53
2018-07-06T08:28:41.218Z,78.62
2018-07-06T08:29:48.031Z,78.55
2018-07-06T08:30:54.856Z,78.39
2018-07-06T08:32:01.547Z,78.39
2018-07-06T08:33:08.366Z,78.23
2018-07-06T08:34:15.511Z,78.29
2018-07-06T08:35:22.386Z,78.27
2018-07-06T08:36:29.356Z,78.15
2018-07-06T08:38:40.245Z,78.07
2018-07-06T08:39:47.095Z,78.00
2018-07-06T08:40:54.030Z,78.11
2018-07-06T08:42:00.791Z,78.22
2018-07-06T08:43:07.559Z,78.08
2018-07-06T08:44:14.336Z,78.20
2018-07-06T08:45:21.162Z,78.10
2018-07-06T08:46:28.106Z,78.08
2018-07-06T08:47:34.902Z,78.09
2018-07-06T08:48:41.900Z,78.13
2018-07-06T08:49:48.770Z,77.91
2018-07-06T08:50:55.863Z,77.93
2018-07-06T08:52:02.724Z,77.89
2018-07-06T08:53:09.525Z,77.84
2018-07-06T08:54:16.423Z,77.93
2018-07-06T08:56:30.285Z,77.93
2018-07-06T08:57:37.155Z,78.03
2018-07-06T08:58:44.069Z,77.87
2018-07-06T08:59:50.919Z,77.83
2018-07-06T09:00:57.845Z,77.73
2018-07-06T09:02:04.714Z,77.83
2018-07-06T09:03:11.577Z,77.86
2018-07-06T09:04:18.319Z,77.60
2018-07-06T09:05:25.117Z,77.48
2018-07-06T09:06:31.944Z,77.74
2018-07-06T09:07:41.029Z,77.87
2018-07-06T09:08:45.811Z,77.80
2018-07-06T09:09:52.579Z,77.73
2018-07-06T09:10:59.463Z,77.37
2018-07-06T09:12:06.222Z,77.14
2018-07-06T09:13:13.178Z,77.13
2018-07-06T09:14:19.989Z,77.15
2018-07-06T09:15:26.824Z,77.05
2018-07-06T09:16:33.642Z,77.11
2018-07-06T09:17:40.484Z,76.78
2018-07-06T09:18:47.275Z,76.62
2018-07-06T09:19:54.249Z,76.42
2018-07-06T09:21:00.882Z,76.29
2018-07-06T09:22:07.659Z,76.15
2018-07-06T09:23:14.557Z,76.13
2018-07-06T09:24:21.271Z,76.11
2018-07-06T09:25:28.056Z,75.84
2018-07-06T09:26:34.869Z,76.00
2018-07-06T09:27:41.679Z,76.04
2018-07-06T09:28:48.405Z,75.98
2018-07-06T09:29:55.137Z,75.91
2018-07-06T09:31:02.126Z,75.88
2018-07-06T09:32:08.897Z,75.85
2018-07-06T09:33:16.099Z,75.57
2018-07-06T09:34:22.735Z,75.38
2018-07-06T09:35:29.518Z,75.34
2018-07-06T09:36:36.379Z,75.15
2018-07-06T09:37:43.130Z,75.03
2018-07-06T09:38:49.959Z,75.20
2018-07-06T09:39:56.823Z,75.26
2018-07-06T09:41:03.615Z,75.25
2018-07-06T09:42:10.527Z,75.33
2018-07-06T09:43:17.711Z,75.34
2018-07-06T09:44:24.549Z,75.31
2018-07-06T09:45:33.490Z,75.14
2018-07-06T09:46:38.239Z,75.19
2018-07-06T09:47:46.259Z,75.22
2018-07-06T09:48:51.854Z,75.20
2018-07-06T09:49:58.686Z,74.84
2018-07-06T09:51:05.489Z,74.86
2018-07-06T09:52:12.311Z,74.74
2018-07-06T09:53:19.188Z,74.90
2018-07-06T09:54:26.065Z,74.90
2018-07-06T09:55:33.007Z,74.81
2018-07-06T09:56:39.842Z,74.46
2018-07-06T09:57:46.607Z,74.58
2018-07-06T09:58:53.333Z,74.60
2018-07-06T10:00:00.111Z,74.76
2018-07-06T10:01:06.946Z,74.91
2018-07-06T10:02:13.801Z,74.74
2018-07-06T10:03:20.799Z,74.68
2018-07-06T10:04:27.666Z,74.53
2018-07-06T10:05:34.488Z,74.42
2018-07-06T10:06:41.262Z,74.22
2018-07-06T10:07:48.148Z,74.25
2018-07-06T10:08:55.072Z,74.32
2018-07-06T10:10:01.934Z,74.02
2018-07-06T10:11:08.741Z,73.63
2018-07-06T10:12:15.928Z,73.44
2018-07-06T10:13:22.734Z,73.30
2018-07-06T10:14:29.515Z,73.18
2018-07-06T10:15:36.351Z,73.00
2018-07-06T10:16:43.190Z,72.64
2018-07-06T10:17:50.031Z,72.72
2018-07-06T10:18:57.841Z,72.69
2018-07-06T10:20:03.781Z,72.61
2018-07-06T10:21:10.734Z,72.58
2018-07-06T10:22:17.670Z,72.67
2018-07-06T10:23:24.411Z,72.73
2018-07-06T10:24:31.469Z,72.76
2018-07-06T10:25:38.326Z,72.94
2018-07-06T10:26:45.118Z,72.83
2018-07-06T10:27:51.930Z,72.59
2018-07-06T10:28:59.049Z,72.76
2018-07-06T10:30:06.094Z,72.55
2018-07-06T10:31:12.913Z,72.55
2018-07-06T10:32:19.969Z,72.63
2018-07-06T10:33:26.857Z,72.56
2018-07-06T10:34:33.724Z,72.63
2018-07-06T10:35:40.505Z,72.31
2018-07-06T10:36:47.285Z,72.09
2018-07-06T10:37:54.055Z,72.07
2018-07-06T10:39:00.877Z,72.15
2018-07-06T10:40:07.740Z,72.19
2018-07-06T10:41:14.787Z,72.20
2018-07-06T10:42:21.670Z,72.26
2018-07-06T10:43:28.482Z,72.37
2018-07-06T10:44:35.286Z,72.25
2018-07-06T10:45:42.199Z,71.77
2018-07-06T10:46:49.033Z,71.58
2018-07-06T10:47:55.787Z,71.54
2018-07-06T10:49:02.902Z,71.48
2018-07-06T10:50:09.730Z,71.41
2018-07-06T10:51:16.503Z,71.06
2018-07-06T10:52:23.313Z,70.90
2018-07-06T10:53:30.097Z,70.87
2018-07-06T10:54:36.858Z,70.85
2018-07-06T10:55:43.579Z,70.84
2018-07-06T10:56:50.392Z,70.71
2018-07-06T10:57:57.177Z,70.90
2018-07-06T10:59:05.183Z,70.72
2018-07-06T11:00:11.023Z,70.51
2018-07-06T11:01:18.085Z,70.28
2018-07-06T11:02:24.877Z,70.01
2018-07-06T11:03:31.675Z,69.87
2018-07-06T11:04:38.514Z,69.65
2018-07-06T11:05:45.266Z,69.43
2018-07-06T11:06:52.158Z,69.05
2018-07-06T11:07:59.200Z,68.51
2018-07-06T11:09:06.326Z,68.65
2018-07-06T11:10:13.151Z,68.49
2018-07-06T11:11:19.990Z,67.88
2018-07-06T11:12:26.758Z,67.68
2018-07-06T11:13:33.590Z,67.37
2018-07-06T11:14:40.458Z,67.01
2018-07-06T11:15:47.283Z,66.81
2018-07-06T11:16:54.122Z,66.83
2018-07-06T11:18:01.001Z,67.08
2018-07-06T11:19:07.757Z,66.68
2018-07-06T11:20:14.577Z,66.56
2018-07-06T11:21:21.351Z,66.55
2018-07-06T11:22:28.138Z,66.15
2018-07-06T11:23:35.218Z,65.92
2018-07-06T11:24:42.138Z,65.44
2018-07-06T11:25:48.978Z,65.32
2018-07-06T11:26:55.841Z,64.80
2018-07-06T11:28:02.610Z,64.60
2018-07-06T11:29:09.795Z,64.58
2018-07-06T11:30:16.617Z,64.21
2018-07-06T11:31:23.412Z,64.14
2018-07-06T11:32:30.194Z,63.75
2018-07-06T11:33:36.944Z,63.66
2018-07-06T11:34:43.843Z,63.79
2018-07-06T11:35:50.661Z,63.68
2018-07-06T11:36:57.487Z,63.79
2018-07-06T11:38:05.173Z,63.40
2018-07-06T11:39:11.015Z,63.12
2018-07-06T11:40:18.197Z,62.94
2018-07-06T11:41:24.655Z,62.47
2018-07-06T11:42:31.513Z,62.40
2018-07-06T11:43:38.557Z,62.33
2018-07-06T11:44:45.440Z,61.89
2018-07-06T11:45:52.336Z,62.13
2018-07-06T11:46:59.319Z,61.97
2018-07-06T11:48:06.147Z,61.87
2018-07-06T11:49:12.915Z,61.72
2018-07-06T11:50:19.917Z,61.54
2018-07-06T11:51:26.761Z,61.38
2018-07-06T11:52:33.729Z,60.96
2018-07-06T11:53:40.531Z,61.06
2018-07-06T11:54:47.388Z,60.96
2018-07-06T11:55:54.268Z,60.74
2018-07-06T11:57:01.258Z,60.79
2018-07-06T11:58:08.090Z,60.75
2018-07-06T11:59:14.963Z,60.53
2018-07-06T12:00:21.946Z,60.60
2018-07-06T12:01:28.967Z,60.36
2018-07-06T12:02:36.766Z,60.28
2018-07-06T12:03:43.015Z,60.23
2018-07-06T12:04:49.468Z,59.81
2018-07-06T12:05:56.234Z,59.57
2018-07-06T12:07:03.024Z,59.19
2018-07-06T12:08:09.837Z,59.20
2018-07-06T12:09:16.599Z,58.82
2018-07-06T12:10:23.442Z,58.45
2018-07-06T12:11:30.380Z,58.48
2018-07-06T12:12:37.335Z,58.63
2018-07-06T12:13:44.181Z,58.63
2018-07-06T12:14:51.002Z,58.73
2018-07-06T12:15:57.927Z,58.54
2018-07-06T12:17:04.800Z,58.65
2018-07-06T12:18:11.670Z,58.38
2018-07-06T12:19:18.513Z,57.87
2018-07-06T12:20:25.283Z,57.69
2018-07-06T12:21:32.169Z,57.30
2018-07-06T12:22:39.076Z,57.11
2018-07-06T12:23:45.946Z,57.07
2018-07-06T12:24:52.849Z,57.05
2018-07-06T12:25:59.719Z,56.85
2018-07-06T12:27:06.551Z,56.37
2018-07-06T12:28:13.325Z,56.23
2018-07-06T12:29:20.130Z,56.48
2018-07-06T12:30:28.692Z,56.37
2018-07-06T12:31:33.958Z,56.19
2018-07-06T12:32:40.874Z,56.12
2018-07-06T12:33:47.616Z,55.87
2018-07-06T12:34:54.516Z,55.85
2018-07-06T12:36:01.642Z,55.51
2018-07-06T12:37:08.654Z,55.25
2018-07-06T12:38:15.694Z,55.22
2018-07-06T12:39:22.494Z,54.94
2018-07-06T12:40:29.335Z,55.02
2018-07-06T12:41:36.159Z,55.36
2018-07-06T12:42:42.984Z,55.50
2018-07-06T12:43:49.799Z,55.59
2018-07-06T12:44:56.674Z,55.59
2018-07-06T12:46:03.478Z,55.71
2018-07-06T12:47:10.401Z,55.69
2018-07-06T12:48:17.221Z,55.46
2018-07-06T12:49:24.034Z,55.47
2018-07-06T12:50:30.816Z,55.39
2018-07-06T12:51:37.728Z,55.26
2018-07-06T12:52:44.633Z,55.22
2018-07-06T12:53:51.485Z,55.17
2018-07-06T12:54:59.104Z,55.31
2018-07-06T12:56:05.134Z,55.27
2018-07-06T12:57:11.962Z,54.94
2018-07-06T12:58:18.849Z,54.81
2018-07-06T12:59:25.668Z,54.85
2018-07-06T13:00:32.520Z,54.77
2018-07-06T13:01:39.571Z,54.45
2018-07-06T13:02:46.402Z,54.24
2018-07-06T13:03:53.378Z,53.78
2018-07-06T13:05:00.275Z,53.48
2018-07-06T13:06:07.231Z,53.13
2018-07-06T13:07:14.023Z,52.90
2018-07-06T13:08:21.007Z,52.40
2018-07-06T13:09:27.879Z,52.15
2018-07-06T13:10:34.772Z,51.89
2018-07-06T13:11:43.486Z,52.04
2018-07-06T13:12:48.591Z,51.74
2018-07-06T13:13:55.478Z,51.38
2018-07-06T13:15:02.336Z,51.50
2018-07-06T13:16:09.214Z,51.36
2018-07-06T13:17:16.001Z,51.27
2018-07-06T13:18:22.841Z,50.86
2018-07-06T13:19:29.632Z,50.77
2018-07-06T13:20:36.526Z,50.70
2018-07-06T13:21:43.081Z,50.98
2018-07-06T13:22:50.226Z,50.80
2018-07-06T13:23:57.107Z,50.51
2018-07-06T13:25:03.892Z,50.54
2018-07-06T13:26:10.775Z,50.82
2018-07-06T13:27:17.709Z,50.66
2018-07-06T13:28:24.523Z,50.53
2018-07-06T13:29:31.382Z,50.69
2018-07-06T13:30:38.243Z,50.87
2018-07-06T13:31:45.089Z,50.91
2018-07-06T13:32:52.206Z,51.20
2018-07-06T13:33:59.040Z,51.54
2018-07-06T13:35:05.919Z,51.68
2018-07-06T13:36:12.946Z,51.85
2018-07-06T13:37:19.946Z,52.26
2018-07-06T13:38:26.771Z,52.33
2018-07-06T13:39:33.668Z,52.24
2018-07-06T13:40:40.542Z,52.58
2018-07-06T13:41:49.231Z,52.20
2018-07-06T13:42:54.666Z,52.05
2018-07-06T13:44:01.590Z,51.83
2018-07-06T13:45:08.476Z,51.91
2018-07-06T13:46:15.309Z,51.57
2018-07-06T13:47:22.135Z,51.55
2018-07-06T13:48:28.948Z,51.58
2018-07-06T13:49:35.756Z,51.53
2018-07-06T13:50:42.577Z,51.56
2018-07-06T13:51:49.342Z,51.68
2018-07-06T13:52:56.223Z,51.94
2018-07-06T13:54:03.035Z,51.91
2018-07-06T13:55:09.942Z,52.02
2018-07-06T13:56:16.724Z,52.18
2018-07-06T13:57:23.514Z,52.24
2018-07-06T13:58:30.356Z,52.25
2018-07-06T13:59:37.190Z,52.33
2018-07-06T14:00:43.861Z,52.49
2018-07-06T14:01:50.719Z,52.33
2018-07-06T14:02:57.703Z,52.52
2018-07-06T14:04:04.485Z,52.71
2018-07-06T14:05:11.320Z,52.59
2018-07-06T14:06:18.192Z,52.31
2018-07-06T14:07:25.076Z,52.11
2018-07-06T14:08:31.904Z,52.02
2018-07-06T14:09:38.712Z,52.14
2018-07-06T14:10:45.488Z,52.17
2018-07-06T14:11:52.348Z,51.97
2018-07-06T14:12:59.186Z,52.02
2018-07-06T14:14:06.019Z,52.03
2018-07-06T14:15:12.930Z,51.91
2018-07-06T14:16:19.803Z,51.89
2018-07-06T14:17:26.631Z,52.14
2018-07-06T14:18:33.464Z,52.17
2018-07-06T14:19:40.322Z,51.92
2018-07-06T14:20:47.075Z,51.80
2018-07-06T14:21:54.020Z,51.74
2018-07-06T14:23:00.851Z,51.72
2018-07-06T14:24:07.651Z,51.95